Parkville, Minnesota
Current Conditions -  °F | °C
As of 5:32 PM on Friday 28 Nov 2014 (Local Time) from KEVM Reporting Station
Light Snow Light Snow  
Wind Chill: 18°   Ceiling: 1400
Heat Index: 18°   Visibility: 7mi
Dew Point: 14°   Wind: 3mph
Humidity: 86%   Direction: 100°E
Pressure: 29.84"   Gusts: NA
Location:  47.4996°N, 92.6723°W
Report Text: KEVM 282332Z AUTO 10003KT 7SM -SN BKN014 M08/M10 A2984 RMK AO2
Loading
Personal Weather Stations






























Interactive Weather Map New forecast layout! Learn more

10-Day Weather Forecast

Advertisements
Track Severe Weather on mobile